createdAt,value
2022-09-05T00:00:41.642Z,0.00
2022-09-05T00:01:41.634Z,0.00
2022-09-05T00:02:48.812Z,0.00
2022-09-05T00:03:42.706Z,0.00
2022-09-05T00:04:41.595Z,0.00
2022-09-05T00:05:57.575Z,0.00
2022-09-05T00:06:41.575Z,0.00
2022-09-05T00:07:59.447Z,0.00
2022-09-05T00:08:42.581Z,0.00
2022-09-05T00:09:41.544Z,0.00
2022-09-05T00:10:59.787Z,0.00
2022-09-05T00:11:44.261Z,0.00
2022-09-05T00:12:41.510Z,0.00
2022-09-05T00:13:41.501Z,0.00
2022-09-05T00:15:17.833Z,0.00
2022-09-05T00:15:42.527Z,0.00
2022-09-05T00:16:41.467Z,0.00
2022-09-05T00:19:30.592Z,0.00
2022-09-05T00:24:21.739Z,0.00
2022-09-05T00:24:22.655Z,0.00
2022-09-05T00:24:23.270Z,0.00
2022-09-05T00:24:27.483Z,0.00
2022-09-05T00:24:28.185Z,0.00
2022-09-05T00:24:30.780Z,0.00
2022-09-05T00:25:06.806Z,0.00
2022-09-05T00:25:41.368Z,0.00
2022-09-05T00:26:43.860Z,0.00
2022-09-05T00:27:41.349Z,0.00
2022-09-05T00:28:41.337Z,0.00
2022-09-05T00:31:05.466Z,0.00
2022-09-05T00:31:08.882Z,0.00
2022-09-05T00:31:54.712Z,0.00
2022-09-05T00:32:42.461Z,0.00
2022-09-05T00:33:41.285Z,0.00
2022-09-05T00:34:48.130Z,0.00
2022-09-05T00:35:42.287Z,0.00
2022-09-05T00:36:41.248Z,0.00
2022-09-05T00:37:41.242Z,0.00
2022-09-05T00:38:41.229Z,0.00
2022-09-05T00:39:41.282Z,0.00
2022-09-05T00:40:41.204Z,0.00
2022-09-05T00:41:41.195Z,0.00
2022-09-05T00:42:41.189Z,0.00
2022-09-05T00:43:41.177Z,0.00
2022-09-05T00:44:41.163Z,0.00
2022-09-05T00:45:41.154Z,0.00
2022-09-05T00:46:41.209Z,0.00
2022-09-05T00:47:41.134Z,0.00
2022-09-05T00:48:41.117Z,0.00
2022-09-05T00:49:41.111Z,0.00
2022-09-05T00:50:41.096Z,0.00
2022-09-05T00:51:41.085Z,0.00
2022-09-05T00:52:41.073Z,0.00
2022-09-05T00:53:41.072Z,0.00
2022-09-05T00:54:41.820Z,0.00
2022-09-05T00:55:41.044Z,0.00
2022-09-05T00:56:41.031Z,0.00
2022-09-05T00:57:41.022Z,0.00
2022-09-05T00:58:41.009Z,0.00
2022-09-05T00:59:40.999Z,0.00
2022-09-05T01:00:40.986Z,0.00
2022-09-05T01:01:41.091Z,0.00
2022-09-05T01:02:51.865Z,0.00
2022-09-05T01:03:40.955Z,0.00
2022-09-05T01:04:40.943Z,0.00
2022-09-05T01:05:40.933Z,0.00
2022-09-05T01:06:40.921Z,0.00
2022-09-05T01:07:44.138Z,0.00
2022-09-05T01:08:40.900Z,0.00
2022-09-05T01:09:40.889Z,0.00
2022-09-05T01:10:40.878Z,0.00
2022-09-05T01:11:40.870Z,0.00
2022-09-05T01:12:40.858Z,0.00
2022-09-05T01:13:40.847Z,0.00
2022-09-05T01:14:40.841Z,0.00
2022-09-05T01:15:40.911Z,0.00
2022-09-05T01:16:40.811Z,0.00
2022-09-05T01:17:40.802Z,0.00
2022-09-05T01:18:40.792Z,0.00
2022-09-05T01:19:40.784Z,0.00
2022-09-05T01:20:40.765Z,0.00
2022-09-05T01:21:40.768Z,0.00
2022-09-05T01:22:40.747Z,0.00
2022-09-05T01:23:40.735Z,0.00
2022-09-05T01:24:40.724Z,0.00
2022-09-05T01:25:40.714Z,0.00
2022-09-05T01:26:40.703Z,0.00
2022-09-05T01:28:23.635Z,0.00
2022-09-05T01:29:16.558Z,0.00
2022-09-05T01:29:41.704Z,0.00
2022-09-05T01:30:40.853Z,0.00
2022-09-05T01:31:40.735Z,0.00
2022-09-05T01:32:40.764Z,0.00
2022-09-05T01:33:40.754Z,0.00
2022-09-05T01:34:40.750Z,0.00
2022-09-05T01:35:40.664Z,0.00
2022-09-05T01:36:41.624Z,0.00
2022-09-05T01:37:40.585Z,0.00
2022-09-05T01:38:40.594Z,0.00
2022-09-05T01:40:15.012Z,0.00
2022-09-05T01:40:40.625Z,0.00
2022-09-05T01:41:40.540Z,0.00
2022-09-05T01:42:40.526Z,0.00
2022-09-05T01:43:40.517Z,0.00
2022-09-05T01:44:40.504Z,0.00
2022-09-05T01:45:40.497Z,0.00
2022-09-05T01:46:40.561Z,0.00
2022-09-05T01:47:40.471Z,0.00
2022-09-05T01:48:42.338Z,0.00
2022-09-05T01:49:41.474Z,0.00
2022-09-05T01:50:40.440Z,0.00
2022-09-05T01:51:40.426Z,0.00
2022-09-05T01:52:49.418Z,0.00
2022-09-05T01:53:40.408Z,0.00
2022-09-05T01:54:40.393Z,0.00
2022-09-05T01:56:05.609Z,0.00
2022-09-05T01:56:40.371Z,0.00
2022-09-05T01:57:40.364Z,0.00
2022-09-05T01:58:40.347Z,0.00
2022-09-05T01:59:40.337Z,0.00
2022-09-05T02:00:40.326Z,0.00
2022-09-05T02:01:40.344Z,0.00
2022-09-05T02:02:40.477Z,0.00
2022-09-05T02:03:40.292Z,0.00
2022-09-05T02:04:40.283Z,0.00
2022-09-05T02:05:48.867Z,0.00
2022-09-05T02:06:43.904Z,0.00
2022-09-05T02:07:40.247Z,0.00
2022-09-05T02:08:41.820Z,0.00
2022-09-05T02:09:40.222Z,0.00
2022-09-05T02:10:40.211Z,0.00
2022-09-05T02:11:40.202Z,0.00
2022-09-05T02:12:40.189Z,0.00
2022-09-05T02:13:40.181Z,0.00
2022-09-05T02:14:40.164Z,0.00
2022-09-05T02:15:40.201Z,0.00
2022-09-05T02:16:40.141Z,0.00
2022-09-05T02:17:50.384Z,0.00
2022-09-05T02:18:41.150Z,0.00
2022-09-05T02:19:40.107Z,0.00
2022-09-05T02:20:40.096Z,0.00
2022-09-05T02:21:55.697Z,0.00
2022-09-05T02:22:41.102Z,0.00
2022-09-05T02:23:41.743Z,0.00
2022-09-05T02:24:40.050Z,0.00
2022-09-05T02:26:02.371Z,0.00
2022-09-05T02:26:40.028Z,0.00
2022-09-05T02:28:05.090Z,0.00
2022-09-05T02:28:40.005Z,0.00
2022-09-05T02:29:40.000Z,0.00
2022-09-05T02:30:48.456Z,0.00
2022-09-05T02:31:41.032Z,0.00
2022-09-05T02:32:40.614Z,0.00
2022-09-05T02:33:39.951Z,0.00
2022-09-05T02:34:39.938Z,0.00
2022-09-05T02:35:39.927Z,0.00
2022-09-05T02:36:39.919Z,0.00
2022-09-05T02:40:31.202Z,0.00
2022-09-05T02:45:04.018Z,0.00
2022-09-05T02:45:06.607Z,0.00
2022-09-05T02:45:06.970Z,0.00
2022-09-05T02:45:08.055Z,0.00
2022-09-05T02:45:10.982Z,0.00
2022-09-05T02:45:14.819Z,0.00
2022-09-05T02:45:24.195Z,0.00
2022-09-05T02:45:40.865Z,0.00
2022-09-05T02:46:39.959Z,0.00
2022-09-05T02:47:39.792Z,0.00
2022-09-05T02:48:39.781Z,0.00
2022-09-05T02:50:23.527Z,0.00
2022-09-05T02:54:07.881Z,0.00
2022-09-05T02:57:24.356Z,0.00
2022-09-05T02:57:29.915Z,0.00
2022-09-05T02:57:36.306Z,0.00
2022-09-05T02:57:37.041Z,0.00
2022-09-05T02:57:40.446Z,0.00
2022-09-05T02:57:40.448Z,0.00
2022-09-05T02:58:06.649Z,0.00
2022-09-05T02:59:06.042Z,0.00
2022-09-05T02:59:39.656Z,0.00
2022-09-05T03:00:39.644Z,0.00
2022-09-05T03:01:39.692Z,0.00
2022-09-05T03:02:39.653Z,0.00
2022-09-05T03:03:39.610Z,0.00
2022-09-05T03:04:39.598Z,0.00
2022-09-05T03:05:39.592Z,0.00
2022-09-05T03:06:39.575Z,0.00
2022-09-05T03:07:39.565Z,0.00
2022-09-05T03:08:39.553Z,0.00
2022-09-05T03:09:39.542Z,0.00
2022-09-05T03:10:53.660Z,0.00
2022-09-05T03:11:39.519Z,0.00
2022-09-05T03:12:39.505Z,0.00
2022-09-05T03:13:48.174Z,0.00
2022-09-05T03:14:39.485Z,0.00
2022-09-05T03:15:39.492Z,0.00
2022-09-05T03:16:47.135Z,0.00
2022-09-05T03:17:39.452Z,0.00
2022-09-05T03:18:39.439Z,0.00
2022-09-05T03:19:46.185Z,0.00
2022-09-05T03:20:40.454Z,0.00
2022-09-05T03:21:39.410Z,0.00
2022-09-05T03:22:39.395Z,0.00
2022-09-05T03:23:39.386Z,0.00
2022-09-05T03:24:39.371Z,0.00
2022-09-05T03:25:39.363Z,0.00
2022-09-05T03:26:39.353Z,0.00
2022-09-05T03:27:39.340Z,0.00
2022-09-05T03:28:39.326Z,0.00
2022-09-05T03:29:39.315Z,0.00
2022-09-05T03:30:39.351Z,0.00
2022-09-05T03:31:39.295Z,0.00
2022-09-05T03:32:40.322Z,0.00
2022-09-05T03:33:39.275Z,0.00
2022-09-05T03:34:39.260Z,0.00
2022-09-05T03:35:39.253Z,0.00
2022-09-05T03:36:39.241Z,0.00
2022-09-05T03:37:39.231Z,0.00
2022-09-05T03:38:39.220Z,0.00
2022-09-05T03:39:39.259Z,0.00
2022-09-05T03:40:39.196Z,0.00
2022-09-05T03:41:40.298Z,0.00
2022-09-05T03:42:39.174Z,0.00
2022-09-05T03:43:39.166Z,0.00
2022-09-05T03:44:39.155Z,0.00
2022-09-05T03:45:39.144Z,0.00
2022-09-05T03:46:39.134Z,0.00
2022-09-05T03:47:39.121Z,0.00
2022-09-05T03:48:39.336Z,0.00
2022-09-05T03:55:38.737Z,0.00
2022-09-05T03:55:41.139Z,0.00
2022-09-05T03:57:06.564Z,0.00
2022-09-05T03:57:13.120Z,0.00
2022-09-05T03:57:15.589Z,0.00
2022-09-05T03:57:15.713Z,0.00
2022-09-05T03:57:23.882Z,0.00
2022-09-05T03:57:27.107Z,0.00
2022-09-05T03:57:42.632Z,0.00
2022-09-05T03:59:38.994Z,0.00
2022-09-05T04:00:38.984Z,0.00
2022-09-05T04:02:45.104Z,0.00
2022-09-05T04:05:10.938Z,0.00
2022-09-05T04:08:08.423Z,0.00
2022-09-05T04:08:14.027Z,0.00
2022-09-05T04:08:15.725Z,0.00
2022-09-05T04:08:18.449Z,0.00
2022-09-05T04:08:24.162Z,0.00
2022-09-05T04:08:42.677Z,0.00
2022-09-05T04:09:50.600Z,0.00
2022-09-05T04:10:39.141Z,0.00
2022-09-05T04:11:38.922Z,0.00
2022-09-05T04:12:38.858Z,0.00
2022-09-05T04:13:38.842Z,0.00
2022-09-05T04:14:38.837Z,0.00
2022-09-05T04:15:38.823Z,0.00
2022-09-05T04:16:38.922Z,0.00
2022-09-05T04:17:38.803Z,0.00
2022-09-05T04:18:38.796Z,0.00
2022-09-05T04:19:38.783Z,0.00
2022-09-05T04:20:40.647Z,0.00
2022-09-05T04:21:38.757Z,0.00
2022-09-05T04:22:38.748Z,0.00
2022-09-05T04:23:38.740Z,0.00
2022-09-05T04:24:39.632Z,0.00
2022-09-05T04:25:38.766Z,0.00
2022-09-05T04:26:38.707Z,0.00
2022-09-05T04:27:38.696Z,0.00
2022-09-05T04:28:41.386Z,0.00
2022-09-05T04:29:38.671Z,0.00
2022-09-05T04:30:40.391Z,0.00
2022-09-05T04:31:38.707Z,0.00
2022-09-05T04:32:38.642Z,0.00
2022-09-05T04:33:38.657Z,0.00
2022-09-05T04:34:38.627Z,0.00
2022-09-05T04:35:38.631Z,0.00
2022-09-05T04:36:38.601Z,0.00
2022-09-05T04:37:48.146Z,0.00
2022-09-05T04:38:38.577Z,0.00
2022-09-05T04:39:38.622Z,0.00
2022-09-05T04:40:38.556Z,0.00
2022-09-05T04:41:39.881Z,0.00
2022-09-05T04:42:38.539Z,0.00
2022-09-05T04:43:38.523Z,5.62
2022-09-05T04:44:38.515Z,5.62
2022-09-05T04:45:38.551Z,5.62
2022-09-05T04:46:48.361Z,5.62
2022-09-05T04:47:38.479Z,5.62
2022-09-05T04:48:38.471Z,5.62
2022-09-05T04:49:38.469Z,5.62
2022-09-05T04:50:38.448Z,5.62
2022-09-05T04:51:38.434Z,5.62
2022-09-05T04:52:38.430Z,11.25
2022-09-05T04:53:38.418Z,11.25
2022-09-05T04:54:38.405Z,11.25
2022-09-05T04:55:38.389Z,11.25
2022-09-05T04:56:38.382Z,11.25
2022-09-05T04:57:38.372Z,11.25
2022-09-05T04:59:59.835Z,16.88
2022-09-05T05:03:12.947Z,16.88
2022-09-05T05:05:58.463Z,16.88
2022-09-05T05:06:01.473Z,16.88
2022-09-05T05:06:02.571Z,16.88
2022-09-05T05:06:12.050Z,16.88
2022-09-05T05:06:15.297Z,16.88
2022-09-05T05:06:16.671Z,16.88
2022-09-05T05:06:46.032Z,22.50
2022-09-05T05:07:39.439Z,22.50
2022-09-05T05:08:39.677Z,22.50
2022-09-05T05:09:38.242Z,22.50
2022-09-05T05:11:48.464Z,22.50
2022-09-05T05:17:58.201Z,28.12
2022-09-05T05:17:58.993Z,28.12
2022-09-05T05:17:59.666Z,22.50
2022-09-05T05:18:02.255Z,28.12
2022-09-05T05:18:06.248Z,28.12
2022-09-05T05:18:13.919Z,33.75
2022-09-05T05:18:14.228Z,28.12
2022-09-05T05:18:54.956Z,33.75
2022-09-05T05:19:39.200Z,33.75
2022-09-05T05:20:41.657Z,39.38
2022-09-05T05:21:38.114Z,39.38
2022-09-05T05:22:38.105Z,39.38
2022-09-05T05:23:38.092Z,39.38
2022-09-05T05:24:38.086Z,39.38
2022-09-05T05:25:38.071Z,39.38
2022-09-05T05:26:38.072Z,45.00
2022-09-05T05:27:38.046Z,45.00
2022-09-05T05:28:38.041Z,45.00
2022-09-05T05:29:38.026Z,45.00
2022-09-05T05:30:38.017Z,45.00
2022-09-05T05:31:38.073Z,45.00
2022-09-05T05:32:45.601Z,45.00
2022-09-05T05:33:39.007Z,50.62
2022-09-05T05:34:37.971Z,50.62
2022-09-05T05:35:38.518Z,56.25
2022-09-05T05:36:38.975Z,56.25
2022-09-05T05:37:37.950Z,61.88
2022-09-05T05:38:37.944Z,61.88
2022-09-05T05:39:37.987Z,67.50
2022-09-05T05:40:41.263Z,67.50
2022-09-05T05:41:38.919Z,67.50
2022-09-05T05:42:37.882Z,73.12
2022-09-05T05:43:37.872Z,73.12
2022-09-05T05:44:37.861Z,73.12
2022-09-05T05:45:37.900Z,78.75
2022-09-05T05:46:37.837Z,84.38
2022-09-05T05:47:37.824Z,84.38
2022-09-05T05:48:37.844Z,90.00
2022-09-05T05:49:37.804Z,90.00
2022-09-05T05:50:37.790Z,95.62
2022-09-05T05:52:00.999Z,90.00
2022-09-05T05:52:38.801Z,90.00
2022-09-05T05:53:43.129Z,84.38
2022-09-05T05:54:38.800Z,78.75
2022-09-05T05:55:51.811Z,78.75
2022-09-05T05:56:38.750Z,73.12
2022-09-05T05:57:37.716Z,78.75
2022-09-05T05:58:37.705Z,78.75
2022-09-05T05:59:37.734Z,84.38
2022-09-05T06:00:37.698Z,90.00
2022-09-05T06:01:38.881Z,95.62
2022-09-05T06:02:37.842Z,106.88
2022-09-05T06:03:37.795Z,112.50
2022-09-05T06:04:43.306Z,112.50
2022-09-05T06:05:38.710Z,118.12
2022-09-05T06:06:37.630Z,123.75
2022-09-05T06:09:12.774Z,123.75
2022-09-05T06:10:15.307Z,123.75
2022-09-05T06:14:26.134Z,129.38
2022-09-05T06:14:51.011Z,129.38
2022-09-05T06:14:57.484Z,129.38
2022-09-05T06:14:58.131Z,129.38
2022-09-05T06:15:02.501Z,129.38
2022-09-05T06:15:08.798Z,129.38
2022-09-05T06:15:38.543Z,129.38
2022-09-05T06:16:37.616Z,129.38
2022-09-05T06:17:37.497Z,135.00
2022-09-05T06:18:37.487Z,140.62
2022-09-05T06:21:40.922Z,146.25
2022-09-05T06:22:06.538Z,151.88
2022-09-05T06:22:06.975Z,151.88
2022-09-05T06:22:38.467Z,151.88
2022-09-05T06:23:39.759Z,146.25
2022-09-05T06:24:37.418Z,135.00
2022-09-05T06:25:37.408Z,129.38
2022-09-05T06:26:37.399Z,123.75
2022-09-05T06:27:37.384Z,123.75
2022-09-05T06:28:38.402Z,123.75
2022-09-05T06:29:38.238Z,123.75
2022-09-05T06:30:37.352Z,123.75
2022-09-05T06:31:37.369Z,123.75
2022-09-05T06:32:37.383Z,123.75
2022-09-05T06:33:37.318Z,123.75
2022-09-05T06:34:37.310Z,123.75
2022-09-05T06:35:37.297Z,123.75
2022-09-05T06:36:37.289Z,129.38
2022-09-05T06:37:37.279Z,129.38
2022-09-05T06:38:37.432Z,135.00
2022-09-05T06:39:37.283Z,146.25
2022-09-05T06:40:37.249Z,163.12
2022-09-05T06:41:37.242Z,191.25
2022-09-05T06:42:43.521Z,191.25
2022-09-05T06:43:38.257Z,174.38
2022-09-05T06:44:37.305Z,180.00
2022-09-05T06:45:37.190Z,185.62
2022-09-05T06:47:21.964Z,180.00
2022-09-05T06:47:38.335Z,180.00
2022-09-05T06:48:46.490Z,185.62
2022-09-05T06:49:40.066Z,191.25
2022-09-05T06:51:02.086Z,191.25
2022-09-05T06:51:37.127Z,185.62
2022-09-05T06:52:37.115Z,275.62
2022-09-05T06:53:37.112Z,180.00
2022-09-05T06:54:37.093Z,208.12
2022-09-05T06:55:37.081Z,253.12
2022-09-05T06:56:37.084Z,326.25
2022-09-05T06:57:43.977Z,309.38
2022-09-05T06:58:38.074Z,298.12
2022-09-05T06:59:37.037Z,281.25
2022-09-05T07:00:37.091Z,264.38
2022-09-05T07:01:59.936Z,185.62
2022-09-05T07:02:58.695Z,168.75
2022-09-05T07:03:38.019Z,168.75
2022-09-05T07:05:23.416Z,174.38
2022-09-05T07:05:45.478Z,180.00
2022-09-05T07:07:00.974Z,202.50
2022-09-05T07:07:36.950Z,371.25
2022-09-05T07:08:37.383Z,354.38
2022-09-05T07:09:36.926Z,236.25
2022-09-05T07:10:39.041Z,208.12
2022-09-05T07:11:36.907Z,196.88
2022-09-05T07:12:36.897Z,196.88
2022-09-05T07:13:40.932Z,196.88
2022-09-05T07:14:37.900Z,196.88
2022-09-05T07:15:36.863Z,202.50
2022-09-05T07:16:37.954Z,202.50
2022-09-05T07:17:48.501Z,208.12
2022-09-05T07:18:36.843Z,208.12
2022-09-05T07:19:36.818Z,208.12
2022-09-05T07:21:17.922Z,208.12
2022-09-05T07:21:36.798Z,213.75
2022-09-05T07:22:48.769Z,213.75
2022-09-05T07:24:06.450Z,219.38
2022-09-05T07:24:53.421Z,225.00
2022-09-05T07:25:37.625Z,225.00
2022-09-05T07:26:54.184Z,230.62
2022-09-05T07:28:00.131Z,230.62
2022-09-05T07:28:37.757Z,230.62
2022-09-05T07:29:36.733Z,236.25
2022-09-05T07:30:36.701Z,236.25
2022-09-05T07:31:37.859Z,236.25
2022-09-05T07:32:36.681Z,230.62
2022-09-05T07:33:36.677Z,225.00
2022-09-05T07:34:36.655Z,219.38
2022-09-05T07:35:41.477Z,208.12
2022-09-05T07:36:36.635Z,202.50
2022-09-05T07:37:36.621Z,196.88
2022-09-05T07:38:52.309Z,196.88
2022-09-05T07:39:37.693Z,191.25
2022-09-05T07:40:36.659Z,185.62
2022-09-05T07:41:36.582Z,185.62
2022-09-05T07:42:36.570Z,180.00
2022-09-05T07:43:36.557Z,174.38
2022-09-05T07:44:36.549Z,168.75
2022-09-05T07:45:36.547Z,163.12
2022-09-05T07:46:36.526Z,163.12
2022-09-05T07:47:36.519Z,168.75
2022-09-05T07:48:36.517Z,174.38
2022-09-05T07:49:36.503Z,399.38
2022-09-05T07:52:43.111Z,416.25
2022-09-05T07:56:49.058Z,421.88
2022-09-05T07:56:51.278Z,461.25
2022-09-05T07:56:52.571Z,444.38
2022-09-05T07:56:59.131Z,495.00
2022-09-05T07:57:01.148Z,455.62
2022-09-05T07:57:04.915Z,472.50
2022-09-05T07:57:50.622Z,517.50
2022-09-05T07:58:36.689Z,511.88
2022-09-05T07:59:36.396Z,545.62
2022-09-05T08:00:36.437Z,579.38
2022-09-05T08:01:39.456Z,590.62
2022-09-05T08:02:36.360Z,663.75
2022-09-05T08:03:36.490Z,646.88
2022-09-05T08:04:36.433Z,652.50
2022-09-05T08:05:36.502Z,630.00
2022-09-05T08:07:46.511Z,652.50
2022-09-05T08:07:49.322Z,652.50
2022-09-05T08:08:37.315Z,675.00
2022-09-05T08:10:06.741Z,601.88
2022-09-05T08:11:22.173Z,618.75
2022-09-05T08:11:36.254Z,669.38
2022-09-05T08:13:22.807Z,675.00
2022-09-05T08:13:37.484Z,646.88
2022-09-05T08:14:44.566Z,646.88
2022-09-05T08:16:00.805Z,646.88
2022-09-05T08:16:37.290Z,663.75
2022-09-05T08:17:36.201Z,663.75
2022-09-05T08:18:36.187Z,601.88
2022-09-05T08:19:36.170Z,618.75
2022-09-05T08:20:36.160Z,635.62
2022-09-05T08:21:39.906Z,675.00
2022-09-05T08:22:36.142Z,686.25
2022-09-05T08:23:36.189Z,703.12
2022-09-05T08:24:36.171Z,742.50
2022-09-05T08:25:43.630Z,765.00
2022-09-05T08:26:37.174Z,736.88
2022-09-05T08:27:36.166Z,720.00
2022-09-05T08:28:39.253Z,742.50
2022-09-05T08:29:36.179Z,753.75
2022-09-05T08:30:36.231Z,776.25
2022-09-05T08:31:36.239Z,821.25
2022-09-05T08:32:36.074Z,826.88
2022-09-05T08:33:36.111Z,810.00
2022-09-05T08:34:45.187Z,821.25
2022-09-05T08:35:36.006Z,810.00
2022-09-05T08:36:35.990Z,798.75
2022-09-05T08:37:35.989Z,787.50
2022-09-05T08:38:40.971Z,810.00
2022-09-05T08:39:35.974Z,798.75
2022-09-05T08:40:35.954Z,787.50
2022-09-05T08:41:51.309Z,793.12
2022-09-05T08:42:37.694Z,770.62
2022-09-05T08:44:13.567Z,765.00
2022-09-05T08:46:39.202Z,720.00
2022-09-05T08:46:39.916Z,736.88
2022-09-05T08:46:49.149Z,742.50
2022-09-05T08:47:45.524Z,748.12
2022-09-05T08:48:35.866Z,770.62
2022-09-05T08:49:37.566Z,810.00
2022-09-05T08:50:35.872Z,798.75
2022-09-05T08:51:35.836Z,798.75
2022-09-05T08:52:36.857Z,810.00
2022-09-05T08:53:46.960Z,826.88
2022-09-05T08:54:35.802Z,860.62
2022-09-05T08:55:35.802Z,888.75
2022-09-05T08:56:35.785Z,888.75
2022-09-05T08:57:35.779Z,916.88
2022-09-05T08:58:35.765Z,945.00
2022-09-05T08:59:35.755Z,905.62
2022-09-05T09:00:35.825Z,888.75
2022-09-05T09:01:48.908Z,894.38
2022-09-05T09:02:47.076Z,866.25
2022-09-05T09:03:35.856Z,838.12
2022-09-05T09:04:54.070Z,866.25
2022-09-05T09:06:11.924Z,883.12
2022-09-05T09:06:35.681Z,877.50
2022-09-05T09:07:51.352Z,883.12
2022-09-05T09:08:35.668Z,928.12
2022-09-05T09:09:35.658Z,978.75
2022-09-05T09:10:35.649Z,961.88
2022-09-05T09:11:36.918Z,956.25
2022-09-05T09:12:35.895Z,933.75
2022-09-05T09:13:35.612Z,950.62
2022-09-05T09:14:35.601Z,984.38
2022-09-05T09:15:35.588Z,973.12
2022-09-05T09:16:35.704Z,691.88
2022-09-05T09:17:35.574Z,922.50
2022-09-05T09:18:36.151Z,922.50
2022-09-05T09:19:35.547Z,770.62
2022-09-05T09:20:35.567Z,776.25
2022-09-05T09:21:35.533Z,950.62
2022-09-05T09:22:35.517Z,961.88
2022-09-05T09:23:35.507Z,961.88
2022-09-05T09:24:35.499Z,984.38
2022-09-05T09:25:35.493Z,950.62
2022-09-05T09:26:35.476Z,916.88
2022-09-05T09:27:52.289Z,916.88
2022-09-05T09:28:49.621Z,916.88
2022-09-05T09:29:36.484Z,877.50
2022-09-05T09:30:35.451Z,911.25
2022-09-05T09:31:35.492Z,950.62
2022-09-05T09:32:35.417Z,973.12
2022-09-05T09:33:35.408Z,939.38
2022-09-05T09:34:36.899Z,860.62
2022-09-05T09:35:35.391Z,894.38
2022-09-05T09:36:35.382Z,877.50
2022-09-05T09:37:48.187Z,950.62
2022-09-05T09:38:36.458Z,950.62
2022-09-05T09:39:38.744Z,1001.25
2022-09-05T09:40:35.374Z,990.00
2022-09-05T09:41:35.333Z,984.38
2022-09-05T09:42:35.320Z,967.50
2022-09-05T09:43:35.314Z,973.12
2022-09-05T09:44:35.311Z,990.00
2022-09-05T09:45:35.285Z,1001.25
2022-09-05T09:46:39.442Z,995.62
2022-09-05T09:47:35.269Z,956.25
2022-09-05T09:48:35.272Z,967.50
2022-09-05T09:49:35.258Z,961.88
2022-09-05T09:50:35.235Z,973.12
2022-09-05T09:51:35.225Z,1046.25
2022-09-05T09:52:35.217Z,1046.25
2022-09-05T09:53:36.916Z,1035.00
2022-09-05T09:54:35.197Z,1018.12
2022-09-05T09:55:35.187Z,1006.88
2022-09-05T09:56:35.172Z,990.00
2022-09-05T09:57:35.176Z,984.38
2022-09-05T09:58:35.204Z,1023.75
2022-09-05T09:59:35.145Z,978.75
2022-09-05T10:00:36.164Z,961.88
2022-09-05T10:01:37.358Z,995.62
2022-09-05T10:04:31.312Z,1001.25
2022-09-05T10:06:40.789Z,1035.00
2022-09-05T10:10:35.211Z,939.38
2022-09-05T10:10:35.305Z,1046.25
2022-09-05T10:10:44.213Z,1046.25
2022-09-05T10:10:45.543Z,1029.38
2022-09-05T10:10:46.919Z,1046.25
2022-09-05T10:10:59.753Z,1057.50
2022-09-05T10:11:00.721Z,1018.12
2022-09-05T10:11:53.623Z,1035.00
2022-09-05T10:12:36.048Z,1074.38
2022-09-05T10:13:35.004Z,1091.25
2022-09-05T10:14:49.959Z,1074.38
2022-09-05T10:15:36.013Z,1046.25
2022-09-05T10:16:34.980Z,1018.12
2022-09-05T10:17:34.998Z,984.38
2022-09-05T10:18:34.964Z,956.25
2022-09-05T10:20:34.938Z,1001.25
2022-09-05T10:21:34.935Z,945.00
2022-09-05T10:22:37.011Z,911.25
2022-09-05T10:23:34.926Z,911.25
2022-09-05T10:24:34.906Z,967.50
2022-09-05T10:25:34.932Z,1006.88
2022-09-05T10:26:35.308Z,1001.25
2022-09-05T10:27:34.869Z,990.00
2022-09-05T10:28:34.863Z,922.50
2022-09-05T10:29:38.478Z,956.25
2022-09-05T10:32:10.384Z,990.00
2022-09-05T10:34:53.495Z,1012.50
2022-09-05T10:35:08.238Z,967.50
2022-09-05T10:35:08.910Z,928.12
2022-09-05T10:35:15.176Z,905.62
2022-09-05T10:35:37.452Z,928.12
2022-09-05T10:36:34.907Z,888.75
2022-09-05T10:37:34.767Z,866.25
2022-09-05T10:38:34.759Z,849.38
2022-09-05T10:39:34.779Z,900.00
2022-09-05T10:40:36.346Z,933.75
2022-09-05T10:41:35.781Z,945.00
2022-09-05T10:42:34.715Z,922.50
2022-09-05T10:43:34.711Z,978.75
2022-09-05T10:44:34.693Z,978.75
2022-09-05T10:45:38.632Z,950.62
2022-09-05T10:46:50.261Z,933.75
2022-09-05T10:47:34.668Z,945.00
2022-09-05T10:48:34.655Z,939.38
2022-09-05T10:49:34.649Z,928.12
2022-09-05T10:50:34.635Z,973.12
2022-09-05T10:51:37.861Z,995.62
2022-09-05T10:52:34.616Z,1001.25
2022-09-05T10:53:38.939Z,978.75
2022-09-05T10:54:34.604Z,984.38
2022-09-05T10:55:34.589Z,1040.62
2022-09-05T10:56:34.606Z,1063.12
2022-09-05T10:57:34.576Z,1091.25
2022-09-05T10:59:26.046Z,1085.62
2022-09-05T11:02:16.132Z,1029.38
2022-09-05T11:02:23.121Z,1068.75
2022-09-05T11:02:27.083Z,1018.12
2022-09-05T11:02:41.034Z,984.38
2022-09-05T11:03:34.649Z,967.50
2022-09-05T11:04:37.101Z,922.50
2022-09-05T11:05:35.559Z,894.38
2022-09-05T11:06:34.519Z,888.75
2022-09-05T11:07:34.477Z,950.62
2022-09-05T11:08:34.463Z,967.50
2022-09-05T11:09:34.458Z,1001.25
2022-09-05T11:10:34.439Z,984.38
2022-09-05T11:11:35.439Z,978.75
2022-09-05T11:12:34.420Z,973.12
2022-09-05T11:13:34.411Z,939.38
2022-09-05T11:14:34.405Z,961.88
2022-09-05T11:15:34.540Z,967.50
2022-09-05T11:16:34.465Z,950.62
2022-09-05T11:17:34.410Z,933.75
2022-09-05T11:18:55.089Z,990.00
2022-09-05T11:19:35.392Z,984.38
2022-09-05T11:20:35.254Z,1074.38
2022-09-05T11:21:34.336Z,1113.75
2022-09-05T11:22:34.323Z,1029.38
2022-09-05T11:23:34.320Z,984.38
2022-09-05T11:24:34.309Z,973.12
2022-09-05T11:25:40.517Z,995.62
2022-09-05T11:26:35.311Z,1006.88
2022-09-05T11:27:34.331Z,984.38
2022-09-05T11:28:34.286Z,990.00
2022-09-05T11:29:34.257Z,1023.75
2022-09-05T11:30:38.100Z,1040.62
2022-09-05T11:31:59.137Z,1018.12
2022-09-05T11:38:01.237Z,1029.38
2022-09-05T11:39:47.494Z,1006.88
2022-09-05T11:39:51.051Z,1029.38
2022-09-05T11:39:51.197Z,1018.12
2022-09-05T11:39:55.851Z,990.00
2022-09-05T11:39:57.724Z,995.62
2022-09-05T11:40:03.625Z,1012.50
2022-09-05T11:40:10.552Z,1018.12
2022-09-05T11:40:51.128Z,950.62
2022-09-05T11:41:35.213Z,961.88
2022-09-05T11:42:34.131Z,1001.25
2022-09-05T11:43:34.124Z,1068.75
2022-09-05T11:44:34.120Z,1080.00
2022-09-05T11:45:34.178Z,1063.12
2022-09-05T11:46:34.199Z,1035.00
2022-09-05T11:47:40.999Z,922.50
2022-09-05T11:48:35.107Z,911.25
2022-09-05T11:49:34.069Z,928.12
2022-09-05T11:50:34.056Z,956.25
2022-09-05T11:51:34.421Z,928.12
2022-09-05T11:52:34.043Z,973.12
2022-09-05T11:53:34.052Z,1040.62
2022-09-05T11:54:34.039Z,1091.25
2022-09-05T11:55:34.015Z,1130.62
2022-09-05T11:56:35.719Z,1046.25
2022-09-05T11:57:35.057Z,967.50
2022-09-05T11:58:45.100Z,1091.25
2022-09-05T11:59:34.997Z,1012.50
2022-09-05T12:00:34.548Z,950.62
2022-09-05T12:01:41.758Z,933.75
2022-09-05T12:02:37.672Z,888.75
2022-09-05T12:03:57.682Z,939.38
2022-09-05T12:04:36.366Z,916.88
2022-09-05T12:05:49.971Z,961.88
2022-09-05T12:06:34.956Z,967.50
2022-09-05T12:07:33.922Z,945.00
2022-09-05T12:08:33.888Z,939.38
2022-09-05T12:09:33.894Z,877.50
2022-09-05T12:10:46.385Z,916.88
2022-09-05T12:11:34.877Z,961.88
2022-09-05T12:12:41.214Z,894.38
2022-09-05T12:13:34.859Z,883.12
2022-09-05T12:14:33.819Z,871.88
2022-09-05T12:15:34.048Z,883.12
2022-09-05T12:16:33.863Z,888.75
2022-09-05T12:17:35.436Z,894.38
2022-09-05T12:18:33.789Z,905.62
2022-09-05T12:19:34.678Z,956.25
2022-09-05T12:20:43.179Z,832.50
2022-09-05T12:22:35.791Z,843.75
2022-09-05T12:23:58.051Z,866.25
2022-09-05T12:24:40.816Z,838.12
2022-09-05T12:27:36.868Z,821.25
2022-09-05T12:27:40.623Z,849.38
2022-09-05T12:27:44.067Z,849.38
2022-09-05T12:29:35.058Z,860.62
2022-09-05T12:29:39.859Z,810.00
2022-09-05T12:30:55.094Z,838.12
2022-09-05T12:32:59.560Z,855.00
2022-09-05T12:35:22.498Z,838.12
2022-09-05T12:36:02.925Z,781.88
2022-09-05T12:36:08.150Z,781.88
2022-09-05T12:36:12.660Z,849.38
2022-09-05T12:40:05.222Z,725.62
2022-09-05T12:40:21.335Z,787.50
2022-09-05T12:40:52.923Z,855.00
2022-09-05T12:40:54.519Z,742.50
2022-09-05T12:41:37.080Z,793.12
2022-09-05T12:42:08.264Z,826.88
2022-09-05T12:42:08.388Z,793.12
2022-09-05T12:42:45.734Z,787.50
2022-09-05T12:44:38.704Z,765.00
2022-09-05T12:44:41.887Z,838.12
2022-09-05T12:45:37.263Z,838.12
2022-09-05T12:46:33.507Z,860.62
2022-09-05T12:47:33.498Z,866.25
2022-09-05T12:48:39.169Z,860.62
2022-09-05T12:49:35.211Z,843.75